createdAt,value
2017-10-29T00:00:55.376Z,89.21
2017-10-29T00:01:55.351Z,89.59
2017-10-29T00:02:55.345Z,89.40
2017-10-29T00:03:55.338Z,89.21
2017-10-29T00:04:55.334Z,89.50
2017-10-29T00:05:55.334Z,89.21
2017-10-29T00:06:55.325Z,89.78
2017-10-29T00:07:55.322Z,89.59
2017-10-29T00:08:55.314Z,89.40
2017-10-29T00:09:55.311Z,89.59
2017-10-29T00:10:55.306Z,89.31
2017-10-29T00:11:55.303Z,89.50
2017-10-29T00:12:55.295Z,89.31
2017-10-29T00:13:55.298Z,89.21
2017-10-29T00:14:55.287Z,89.21
2017-10-29T00:15:55.307Z,89.50
2017-10-29T00:16:55.275Z,89.88
2017-10-29T00:17:55.316Z,89.59
2017-10-29T00:18:55.264Z,89.69
2017-10-29T00:19:55.357Z,89.50
2017-10-29T00:20:55.256Z,90.07
2017-10-29T00:21:55.250Z,89.97
2017-10-29T00:22:55.257Z,89.97
2017-10-29T00:23:55.244Z,89.59
2017-10-29T00:24:55.234Z,89.88
2017-10-29T00:25:55.231Z,89.97
2017-10-29T00:26:55.237Z,89.12
2017-10-29T00:27:55.223Z,89.12
2017-10-29T00:28:55.214Z,89.50
2017-10-29T00:29:55.209Z,89.59
2017-10-29T00:30:55.208Z,90.07
2017-10-29T00:31:55.204Z,89.97
2017-10-29T00:32:55.197Z,89.88
2017-10-29T00:33:55.191Z,89.78
2017-10-29T00:34:55.207Z,89.88
2017-10-29T00:35:55.186Z,90.07
2017-10-29T00:36:55.178Z,90.26
2017-10-29T00:37:55.174Z,90.73
2017-10-29T00:38:55.165Z,90.73
2017-10-29T00:39:55.159Z,90.26
2017-10-29T00:40:55.164Z,90.45
2017-10-29T00:41:55.154Z,90.64
2017-10-29T00:42:55.146Z,90.93
2017-10-29T00:43:55.142Z,90.73
2017-10-29T00:44:55.137Z,90.83
2017-10-29T00:45:55.133Z,90.83
2017-10-29T00:46:55.155Z,90.93
2017-10-29T00:47:55.122Z,90.55
2017-10-29T00:48:55.115Z,91.50
2017-10-29T00:49:55.110Z,91.69
2017-10-29T00:50:55.105Z,92.17
2017-10-29T00:51:55.104Z,91.78
2017-10-29T00:52:55.095Z,91.88
2017-10-29T00:53:55.127Z,91.98
2017-10-29T00:54:55.087Z,92.55
2017-10-29T00:55:55.082Z,92.46
2017-10-29T00:56:55.083Z,92.36
2017-10-29T00:57:55.075Z,92.26
2017-10-29T00:58:55.071Z,92.36
2017-10-29T00:59:55.061Z,92.07
2017-10-29T01:00:55.062Z,92.36
2017-10-29T01:01:55.054Z,92.36
2017-10-29T01:02:55.046Z,92.26
2017-10-29T01:03:55.046Z,92.36
2017-10-29T01:04:55.649Z,92.26
2017-10-29T01:05:55.032Z,92.26
2017-10-29T01:06:55.032Z,92.55
2017-10-29T01:07:55.038Z,92.55
2017-10-29T01:08:55.016Z,92.36
2017-10-29T01:09:55.147Z,92.83
2017-10-29T01:10:55.064Z,92.74
2017-10-29T01:11:55.186Z,92.83
2017-10-29T01:12:55.000Z,92.36
2017-10-29T01:13:54.992Z,92.65
2017-10-29T01:14:54.989Z,92.65
2017-10-29T01:15:54.985Z,92.65
2017-10-29T01:16:54.979Z,92.55
2017-10-29T01:17:54.975Z,92.36
2017-10-29T01:18:54.969Z,92.36
2017-10-29T01:19:54.962Z,92.26
2017-10-29T01:20:54.957Z,92.26
2017-10-29T01:21:54.955Z,92.36
2017-10-29T01:22:54.952Z,92.65
2017-10-29T01:23:54.945Z,92.26
2017-10-29T01:24:54.942Z,92.46
2017-10-29T01:25:54.935Z,92.55
2017-10-29T01:26:54.932Z,92.17
2017-10-29T01:27:54.930Z,91.78
2017-10-29T01:28:54.916Z,92.07
2017-10-29T01:29:54.912Z,91.69
2017-10-29T01:30:54.928Z,91.60
2017-10-29T01:31:54.907Z,91.98
2017-10-29T01:32:54.899Z,91.88
2017-10-29T01:33:54.894Z,91.69
2017-10-29T01:34:54.889Z,91.98
2017-10-29T01:35:54.892Z,91.88
2017-10-29T01:36:54.878Z,92.07
2017-10-29T01:37:54.875Z,92.17
2017-10-29T01:38:54.871Z,91.78
2017-10-29T01:39:54.866Z,92.07
2017-10-29T01:40:54.860Z,91.60
2017-10-29T01:41:54.854Z,91.83
2017-10-29T01:42:54.852Z,91.78
2017-10-29T01:43:54.844Z,91.41
2017-10-29T01:44:54.848Z,91.50
2017-10-29T01:45:54.836Z,91.69
2017-10-29T01:46:54.847Z,91.69
2017-10-29T01:47:54.831Z,91.69
2017-10-29T01:48:54.820Z,91.74
2017-10-29T01:49:54.820Z,91.60
2017-10-29T01:50:54.809Z,91.69
2017-10-29T01:51:54.807Z,91.78
2017-10-29T01:52:54.800Z,91.60
2017-10-29T01:53:54.795Z,91.78
2017-10-29T01:54:54.790Z,92.17
2017-10-29T01:55:54.792Z,91.88
2017-10-29T01:56:54.784Z,91.88
2017-10-29T01:57:54.778Z,91.78
2017-10-29T01:58:54.774Z,92.36
2017-10-29T01:59:54.778Z,92.17
2017-10-29T02:00:54.763Z,92.26
2017-10-29T02:01:55.010Z,92.17
2017-10-29T02:02:54.757Z,92.55
2017-10-29T02:03:55.159Z,92.46
2017-10-29T02:04:54.746Z,91.98
2017-10-29T02:05:54.755Z,91.74
2017-10-29T02:06:54.735Z,91.78
2017-10-29T02:07:54.732Z,91.78
2017-10-29T02:08:54.724Z,91.74
2017-10-29T02:09:54.719Z,91.83
2017-10-29T02:10:54.714Z,91.07
2017-10-29T02:11:54.708Z,91.64
2017-10-29T02:12:54.708Z,91.26
2017-10-29T02:13:54.700Z,91.26
2017-10-29T02:14:54.696Z,91.45
2017-10-29T02:15:54.684Z,91.64
2017-10-29T02:16:54.688Z,91.74
2017-10-29T02:17:54.682Z,91.36
2017-10-29T02:18:54.675Z,91.45
2017-10-29T02:19:54.673Z,91.36
2017-10-29T02:20:54.668Z,91.26
2017-10-29T02:21:54.662Z,91.26
2017-10-29T02:22:54.660Z,91.26
2017-10-29T02:23:54.659Z,90.97
2017-10-29T02:24:54.649Z,90.69
2017-10-29T02:25:54.645Z,91.36
2017-10-29T02:26:54.641Z,91.36
2017-10-29T02:27:54.637Z,91.16
2017-10-29T02:28:54.663Z,90.97
2017-10-29T02:29:54.629Z,90.78
2017-10-29T02:30:54.622Z,90.78
2017-10-29T02:31:54.616Z,91.16
2017-10-29T02:32:54.612Z,90.88
2017-10-29T02:33:54.604Z,90.21
2017-10-29T02:34:54.603Z,90.59
2017-10-29T02:35:54.595Z,90.97
2017-10-29T02:36:54.607Z,90.59
2017-10-29T02:37:54.589Z,90.59
2017-10-29T02:38:54.579Z,90.78
2017-10-29T02:39:54.578Z,90.59
2017-10-29T02:40:54.577Z,90.88
2017-10-29T02:41:54.566Z,90.69
2017-10-29T02:42:54.566Z,90.69
2017-10-29T02:43:54.557Z,90.97
2017-10-29T02:44:54.558Z,90.69
2017-10-29T02:45:54.547Z,90.78
2017-10-29T02:46:54.547Z,90.59
2017-10-29T02:47:54.544Z,90.59
2017-10-29T02:48:54.534Z,90.69
2017-10-29T02:49:54.535Z,90.59
2017-10-29T02:50:54.533Z,90.88
2017-10-29T02:51:54.519Z,90.97
2017-10-29T02:52:54.518Z,90.97
2017-10-29T02:53:54.996Z,90.78
2017-10-29T02:54:54.507Z,90.78
2017-10-29T02:55:54.502Z,90.78
2017-10-29T02:56:54.502Z,91.07
2017-10-29T02:57:54.499Z,90.88
2017-10-29T02:58:54.496Z,90.97
2017-10-29T02:59:54.487Z,91.26
2017-10-29T03:00:54.480Z,91.07
2017-10-29T03:01:54.475Z,90.59
2017-10-29T03:02:54.469Z,91.26
2017-10-29T03:03:54.462Z,90.88
2017-10-29T03:04:54.463Z,91.07
2017-10-29T03:05:54.455Z,90.97
2017-10-29T03:06:54.457Z,91.07
2017-10-29T03:07:54.449Z,91.36
2017-10-29T03:08:54.444Z,91.16
2017-10-29T03:09:54.451Z,91.36
2017-10-29T03:10:54.442Z,91.45
2017-10-29T03:11:54.431Z,91.45
2017-10-29T03:12:54.423Z,91.16
2017-10-29T03:13:54.431Z,91.16
2017-10-29T03:14:54.420Z,91.55
2017-10-29T03:15:54.412Z,91.26
2017-10-29T03:16:54.407Z,91.83
2017-10-29T03:17:54.404Z,91.74
2017-10-29T03:18:54.398Z,91.64
2017-10-29T03:19:54.396Z,91.83
2017-10-29T03:20:54.440Z,91.64
2017-10-29T03:21:54.385Z,91.64
2017-10-29T03:22:54.380Z,92.12
2017-10-29T03:23:54.376Z,91.93
2017-10-29T03:24:54.369Z,91.55
2017-10-29T03:25:54.367Z,91.74
2017-10-29T03:26:54.366Z,91.74
2017-10-29T03:27:54.357Z,91.93
2017-10-29T03:28:54.354Z,91.93
2017-10-29T03:29:54.352Z,92.69
2017-10-29T03:30:54.346Z,92.21
2017-10-29T03:31:54.338Z,92.21
2017-10-29T03:32:54.334Z,92.31
2017-10-29T03:33:54.331Z,92.69
2017-10-29T03:34:54.329Z,92.50
2017-10-29T03:35:54.325Z,92.36
2017-10-29T03:36:54.317Z,92.26
2017-10-29T03:37:54.443Z,92.16
2017-10-29T03:38:54.308Z,92.45
2017-10-29T03:39:54.306Z,92.36
2017-10-29T03:40:54.300Z,92.74
2017-10-29T03:41:54.287Z,92.55
2017-10-29T03:42:54.364Z,92.36
2017-10-29T03:43:54.284Z,92.26
2017-10-29T03:44:54.281Z,92.36
2017-10-29T03:45:54.291Z,92.45
2017-10-29T03:46:54.271Z,92.36
2017-10-29T03:47:54.270Z,92.55
2017-10-29T03:48:54.267Z,92.26
2017-10-29T03:49:54.262Z,93.02
2017-10-29T03:50:54.255Z,93.02
2017-10-29T03:51:54.250Z,93.02
2017-10-29T03:52:54.248Z,93.88
2017-10-29T03:53:54.237Z,94.36
2017-10-29T03:54:54.236Z,94.93
2017-10-29T03:55:54.235Z,94.27
2017-10-29T03:56:54.226Z,94.46
2017-10-29T03:57:54.226Z,95.12
2017-10-29T03:58:54.222Z,95.51
2017-10-29T03:59:54.223Z,95.94
2017-10-29T04:00:54.210Z,96.03
2017-10-29T04:01:54.205Z,96.32
2017-10-29T04:02:54.200Z,96.42
2017-10-29T04:03:54.208Z,97.27
2017-10-29T04:04:54.190Z,97.37
2017-10-29T04:05:54.191Z,97.47
2017-10-29T04:06:54.182Z,97.85
2017-10-29T04:07:54.177Z,98.23
2017-10-29T04:08:54.171Z,98.71
2017-10-29T04:09:54.168Z,98.80
2017-10-29T04:10:54.164Z,98.90
2017-10-29T04:11:54.159Z,99.08
2017-10-29T04:12:54.156Z,99.28
2017-10-29T04:13:54.147Z,99.66
2017-10-29T04:14:54.146Z,99.47
2017-10-29T04:15:54.141Z,99.57
2017-10-29T04:16:54.136Z,99.95
2017-10-29T04:17:54.131Z,99.76
2017-10-29T04:18:54.128Z,99.08
2017-10-29T04:19:54.697Z,99.37
2017-10-29T04:20:54.117Z,99.99
2017-10-29T04:21:54.112Z,99.85
2017-10-29T04:22:54.104Z,99.37
2017-10-29T04:23:54.103Z,99.66
2017-10-29T04:24:54.100Z,99.99
2017-10-29T04:25:54.095Z,99.57
2017-10-29T04:26:54.094Z,99.57
2017-10-29T04:27:54.087Z,98.99
2017-10-29T04:28:54.082Z,99.57
2017-10-29T04:29:54.078Z,99.76
2017-10-29T04:30:54.073Z,98.90
2017-10-29T04:31:54.062Z,99.47
2017-10-29T04:32:54.063Z,99.18
2017-10-29T04:33:54.059Z,99.43
2017-10-29T04:34:54.054Z,99.47
2017-10-29T04:35:54.080Z,99.66
2017-10-29T04:36:54.043Z,99.95
2017-10-29T04:37:54.076Z,99.85
2017-10-29T04:38:54.035Z,99.95
2017-10-29T04:39:54.032Z,99.76
2017-10-29T04:40:54.026Z,99.85
2017-10-29T04:41:54.018Z,99.85
2017-10-29T04:42:54.146Z,99.66
2017-10-29T04:43:54.012Z,99.99
2017-10-29T04:44:54.010Z,99.76
2017-10-29T04:45:54.008Z,99.33
2017-10-29T04:46:53.997Z,99.43
2017-10-29T04:47:53.995Z,99.14
2017-10-29T04:48:53.989Z,98.85
2017-10-29T04:49:54.002Z,99.33
2017-10-29T04:50:54.020Z,98.75
2017-10-29T04:51:53.975Z,99.43
2017-10-29T04:52:53.973Z,99.33
2017-10-29T04:53:53.974Z,99.52
2017-10-29T04:54:53.979Z,99.71
2017-10-29T04:55:53.991Z,99.33
2017-10-29T04:56:53.975Z,99.33
2017-10-29T04:57:53.974Z,99.23
2017-10-29T04:58:53.945Z,99.33
2017-10-29T04:59:53.942Z,99.04
2017-10-29T05:00:53.934Z,99.43
2017-10-29T05:01:53.929Z,98.94
2017-10-29T05:02:53.934Z,99.71
2017-10-29T05:03:53.923Z,99.14
2017-10-29T05:04:53.968Z,99.43
2017-10-29T05:05:53.908Z,99.62
2017-10-29T05:06:53.907Z,99.43
2017-10-29T05:07:53.905Z,99.99
2017-10-29T05:08:53.894Z,99.14
2017-10-29T05:09:53.915Z,99.90
2017-10-29T05:10:53.903Z,99.90
2017-10-29T05:11:53.884Z,99.71
2017-10-29T05:12:53.884Z,99.99
2017-10-29T05:13:53.889Z,99.71
2017-10-29T05:14:53.883Z,99.90
2017-10-29T05:15:53.906Z,99.99
2017-10-29T05:16:53.865Z,99.80
2017-10-29T05:17:53.927Z,99.99
2017-10-29T05:18:53.909Z,99.99
2017-10-29T05:19:54.062Z,99.99
2017-10-29T05:20:53.852Z,99.99
2017-10-29T05:21:53.859Z,99.99
2017-10-29T05:22:53.883Z,99.99
2017-10-29T05:23:53.903Z,99.99
2017-10-29T05:24:53.861Z,99.99
2017-10-29T05:25:53.819Z,99.99
2017-10-29T05:26:53.814Z,99.99
2017-10-29T05:27:53.903Z,99.99
2017-10-29T05:28:53.800Z,99.99
2017-10-29T05:29:53.805Z,99.99
2017-10-29T05:30:53.817Z,99.99
2017-10-29T05:31:53.788Z,99.99
2017-10-29T05:32:53.864Z,99.99
2017-10-29T05:33:53.801Z,99.99
2017-10-29T05:34:53.796Z,99.99
2017-10-29T05:35:53.775Z,99.99
2017-10-29T05:36:53.773Z,99.99
2017-10-29T05:37:53.775Z,99.99
2017-10-29T05:38:53.771Z,99.99
2017-10-29T05:39:53.761Z,99.99
2017-10-29T05:40:53.770Z,99.99
2017-10-29T05:41:53.769Z,99.99
2017-10-29T05:42:53.771Z,99.90
2017-10-29T05:43:53.746Z,99.90
2017-10-29T05:44:53.786Z,99.99
2017-10-29T05:45:53.776Z,99.71
2017-10-29T05:46:53.741Z,99.99
2017-10-29T05:47:53.767Z,99.99
2017-10-29T05:48:53.732Z,99.99
2017-10-29T05:49:53.747Z,99.99
2017-10-29T05:50:53.750Z,99.99
2017-10-29T05:51:53.722Z,99.99
2017-10-29T05:52:53.746Z,99.99
2017-10-29T05:53:53.702Z,99.99
2017-10-29T05:54:53.692Z,99.99
2017-10-29T05:55:53.686Z,99.99
2017-10-29T05:56:53.685Z,99.99
2017-10-29T05:57:53.830Z,99.99
2017-10-29T05:58:53.680Z,99.99
2017-10-29T05:59:53.674Z,99.99
2017-10-29T06:00:53.684Z,99.99
2017-10-29T06:01:53.670Z,99.99
2017-10-29T06:02:53.675Z,99.99
2017-10-29T06:03:53.663Z,99.99
2017-10-29T06:04:53.670Z,99.99
2017-10-29T06:05:53.676Z,99.99
2017-10-29T06:06:53.667Z,99.99
2017-10-29T06:07:53.649Z,99.99
2017-10-29T06:08:53.672Z,99.99
2017-10-29T06:09:53.635Z,99.99
2017-10-29T06:10:53.629Z,99.99
2017-10-29T06:11:53.638Z,99.99
2017-10-29T06:12:53.715Z,99.99
2017-10-29T06:13:53.639Z,99.99
2017-10-29T06:14:53.643Z,99.99
2017-10-29T06:15:53.609Z,99.99
2017-10-29T06:16:53.601Z,99.99
2017-10-29T06:17:53.647Z,99.99
2017-10-29T06:18:53.598Z,99.99
2017-10-29T06:19:53.589Z,99.99
2017-10-29T06:20:53.625Z,99.99
2017-10-29T06:21:53.576Z,99.99
2017-10-29T06:22:53.605Z,99.99
2017-10-29T06:23:53.571Z,99.99
2017-10-29T06:24:53.572Z,99.99
2017-10-29T06:25:53.584Z,99.99
2017-10-29T06:26:53.560Z,99.99
2017-10-29T06:27:54.302Z,99.99
2017-10-29T06:28:53.560Z,99.99
2017-10-29T06:29:53.548Z,99.99
2017-10-29T06:30:53.545Z,99.99
2017-10-29T06:31:53.566Z,99.99
2017-10-29T06:32:53.583Z,99.99
2017-10-29T06:33:53.535Z,99.99
2017-10-29T06:34:53.562Z,99.99
2017-10-29T06:35:53.529Z,99.99
2017-10-29T06:36:53.543Z,99.99
2017-10-29T06:37:53.545Z,99.99
2017-10-29T06:38:53.517Z,99.99
2017-10-29T06:39:53.518Z,99.99
2017-10-29T06:40:53.540Z,99.99
2017-10-29T06:41:53.531Z,99.23
2017-10-29T06:42:53.508Z,99.80
2017-10-29T06:43:53.524Z,98.66
2017-10-29T06:44:53.502Z,98.66
2017-10-29T06:45:53.522Z,98.08
2017-10-29T06:46:53.505Z,97.61
2017-10-29T06:47:53.470Z,98.28
2017-10-29T06:48:53.554Z,96.46
2017-10-29T06:49:53.470Z,96.84
2017-10-29T06:50:53.462Z,97.80
2017-10-29T06:51:53.444Z,97.32
2017-10-29T06:52:53.474Z,97.03
2017-10-29T06:53:53.445Z,95.70
2017-10-29T06:54:53.439Z,95.32
2017-10-29T06:55:53.434Z,94.07
2017-10-29T06:56:53.432Z,95.51
2017-10-29T06:57:53.516Z,95.41
2017-10-29T06:58:53.425Z,95.12
2017-10-29T06:59:53.418Z,95.79
2017-10-29T07:00:53.416Z,95.70
2017-10-29T07:01:53.409Z,96.27
2017-10-29T07:02:53.478Z,95.79
2017-10-29T07:03:53.402Z,96.42
2017-10-29T07:04:53.397Z,97.27
2017-10-29T07:05:53.392Z,96.03
2017-10-29T07:06:53.387Z,97.08
2017-10-29T07:07:53.488Z,96.89
2017-10-29T07:08:53.377Z,96.89
2017-10-29T07:09:53.370Z,96.80
2017-10-29T07:10:53.368Z,96.98
2017-10-29T07:11:53.361Z,97.03
2017-10-29T07:12:53.560Z,97.08
2017-10-29T07:13:53.353Z,96.22
2017-10-29T07:14:53.348Z,96.22
2017-10-29T07:15:53.345Z,96.42
2017-10-29T07:16:53.339Z,97.13
2017-10-29T07:17:53.499Z,95.61
2017-10-29T07:18:53.328Z,94.93
2017-10-29T07:19:53.329Z,96.08
2017-10-29T07:20:53.321Z,94.17
2017-10-29T07:21:53.315Z,93.31
2017-10-29T07:22:53.324Z,91.98
2017-10-29T07:23:53.307Z,93.17
2017-10-29T07:24:53.300Z,94.32
2017-10-29T07:25:53.297Z,95.17
2017-10-29T07:26:53.294Z,95.08
2017-10-29T07:27:53.320Z,94.70
2017-10-29T07:28:53.283Z,94.79
2017-10-29T07:29:53.275Z,94.22
2017-10-29T07:30:53.278Z,94.03
2017-10-29T07:31:53.268Z,93.93
2017-10-29T07:32:53.256Z,92.98
2017-10-29T07:33:53.258Z,91.98
2017-10-29T07:34:53.245Z,90.45
2017-10-29T07:35:53.261Z,90.64
2017-10-29T07:36:53.259Z,89.31
2017-10-29T07:37:53.274Z,89.12
2017-10-29T07:38:53.224Z,89.21
2017-10-29T07:39:53.227Z,89.97
2017-10-29T07:40:53.233Z,89.97
2017-10-29T07:41:53.219Z,89.02
2017-10-29T07:42:53.213Z,88.83
2017-10-29T07:43:53.203Z,89.21
2017-10-29T07:44:53.204Z,89.31
2017-10-29T07:45:53.198Z,89.31
2017-10-29T07:46:53.197Z,89.97
2017-10-29T07:47:53.194Z,90.22
2017-10-29T07:48:53.182Z,90.64
2017-10-29T07:49:53.180Z,90.36
2017-10-29T07:50:53.178Z,90.26
2017-10-29T07:51:53.168Z,89.31
2017-10-29T07:52:53.163Z,89.21
2017-10-29T07:53:53.160Z,88.16
2017-10-29T07:54:53.158Z,88.26
2017-10-29T07:55:53.152Z,87.78
2017-10-29T07:56:53.148Z,87.49
2017-10-29T07:57:53.141Z,88.26
2017-10-29T07:58:53.136Z,88.26
2017-10-29T07:59:53.129Z,87.59
2017-10-29T08:00:53.130Z,88.35
2017-10-29T08:01:53.122Z,87.30
2017-10-29T08:02:53.116Z,86.77
2017-10-29T08:03:53.114Z,86.87
2017-10-29T08:04:53.108Z,86.96
2017-10-29T08:05:53.109Z,86.49
2017-10-29T08:06:53.100Z,85.63
2017-10-29T08:07:53.098Z,85.44
2017-10-29T08:08:53.079Z,85.44
2017-10-29T08:09:53.084Z,85.34
2017-10-29T08:10:53.083Z,83.05
2017-10-29T08:11:53.084Z,82.57
2017-10-29T08:12:53.071Z,82.00
2017-10-29T08:13:53.064Z,83.24
2017-10-29T08:14:53.073Z,83.53
2017-10-29T08:15:53.067Z,83.14
2017-10-29T08:16:53.064Z,81.81
2017-10-29T08:17:53.046Z,81.62
2017-10-29T08:18:53.036Z,82.00
2017-10-29T08:19:53.053Z,80.57
2017-10-29T08:20:53.039Z,80.66
2017-10-29T08:21:53.030Z,80.57
2017-10-29T08:22:53.070Z,81.71
2017-10-29T08:23:53.026Z,82.67
2017-10-29T08:24:53.018Z,82.09
2017-10-29T08:25:53.014Z,82.86
2017-10-29T08:26:53.009Z,82.19
2017-10-29T08:27:53.057Z,81.24
2017-10-29T08:28:52.992Z,80.47
2017-10-29T08:29:52.987Z,79.99
2017-10-29T08:30:52.983Z,80.38
2017-10-29T08:31:52.982Z,79.99
2017-10-29T08:32:53.136Z,79.43
2017-10-29T08:33:52.974Z,80.47
2017-10-29T08:34:52.970Z,80.19
2017-10-29T08:35:52.961Z,80.19
2017-10-29T08:36:52.957Z,80.47
2017-10-29T08:37:52.950Z,80.66
2017-10-29T08:38:52.947Z,80.85
2017-10-29T08:39:52.943Z,81.24
2017-10-29T08:40:53.006Z,80.66
2017-10-29T08:41:52.936Z,81.90
2017-10-29T08:42:52.934Z,81.04
2017-10-29T08:43:52.926Z,82.00
2017-10-29T08:44:52.930Z,82.09
2017-10-29T08:45:52.917Z,80.66
2017-10-29T08:46:52.915Z,80.19
2017-10-29T08:47:52.906Z,81.52
2017-10-29T08:48:52.901Z,81.52
2017-10-29T08:49:52.898Z,80.76
2017-10-29T08:50:52.892Z,79.99
2017-10-29T08:51:52.892Z,81.24
2017-10-29T08:52:52.888Z,81.24
2017-10-29T08:53:52.883Z,81.14
2017-10-29T08:54:52.878Z,80.38
2017-10-29T08:55:52.873Z,79.23
2017-10-29T08:56:52.868Z,77.13
2017-10-29T08:57:52.872Z,77.03
2017-10-29T08:58:52.861Z,74.84
2017-10-29T08:59:52.853Z,75.13
2017-10-29T09:00:52.848Z,76.27
2017-10-29T09:01:52.841Z,76.14
2017-10-29T09:02:52.840Z,75.13
2017-10-29T09:03:52.839Z,74.65
2017-10-29T09:04:52.834Z,75.09
2017-10-29T09:05:52.818Z,75.51
2017-10-29T09:06:52.815Z,75.70
2017-10-29T09:07:52.817Z,75.13
2017-10-29T09:08:52.816Z,72.83
2017-10-29T09:09:52.804Z,72.17
2017-10-29T09:10:52.800Z,71.50
2017-10-29T09:11:52.813Z,72.36
2017-10-29T09:12:52.792Z,70.64
2017-10-29T09:13:52.790Z,71.41
2017-10-29T09:14:52.786Z,71.50
2017-10-29T09:15:52.806Z,70.36
2017-10-29T09:16:52.794Z,69.78
2017-10-29T09:17:52.773Z,71.41
2017-10-29T09:18:52.767Z,71.50
2017-10-29T09:19:52.763Z,72.26
2017-10-29T09:20:52.758Z,69.46
2017-10-29T09:21:52.746Z,69.40
2017-10-29T09:22:52.758Z,68.73
2017-10-29T09:23:52.750Z,68.70
2017-10-29T09:24:53.550Z,68.32
2017-10-29T09:25:52.728Z,68.03
2017-10-29T09:26:52.737Z,66.88
2017-10-29T09:27:52.738Z,66.44
2017-10-29T09:28:52.721Z,67.87
2017-10-29T09:29:52.710Z,68.92
2017-10-29T09:30:52.738Z,68.06
2017-10-29T09:31:52.709Z,67.40
2017-10-29T09:32:52.696Z,66.53
2017-10-29T09:33:52.706Z,63.86
2017-10-29T09:34:52.686Z,64.91
2017-10-29T09:35:52.685Z,65.39
2017-10-29T09:36:52.683Z,64.81
2017-10-29T09:37:52.678Z,62.91
2017-10-29T09:38:52.670Z,63.76
2017-10-29T09:39:52.662Z,63.29
2017-10-29T09:40:52.661Z,63.29
2017-10-29T09:41:52.653Z,64.53
2017-10-29T09:42:52.656Z,65.77
2017-10-29T09:43:52.645Z,65.30
2017-10-29T09:44:52.653Z,64.05
2017-10-29T09:45:52.636Z,63.20
2017-10-29T09:46:52.646Z,63.39
2017-10-29T09:47:52.626Z,63.57
2017-10-29T09:48:52.622Z,63.29
2017-10-29T09:49:52.620Z,63.57
2017-10-29T09:50:52.613Z,64.72
2017-10-29T09:51:52.702Z,63.96
2017-10-29T09:52:52.608Z,64.72
2017-10-29T09:53:52.604Z,63.96
2017-10-29T09:54:52.594Z,65.10
2017-10-29T09:55:52.609Z,66.82
2017-10-29T09:56:52.589Z,62.81
2017-10-29T09:57:52.583Z,63.76
2017-10-29T09:58:52.575Z,65.30
2017-10-29T09:59:52.571Z,63.96
2017-10-29T10:00:52.631Z,65.77
2017-10-29T10:01:52.567Z,64.91
2017-10-29T10:02:52.557Z,62.71
2017-10-29T10:03:52.558Z,63.29
2017-10-29T10:04:52.544Z,63.96
2017-10-29T10:05:52.546Z,64.81
2017-10-29T10:06:52.542Z,64.53
2017-10-29T10:07:52.546Z,64.91
2017-10-29T10:08:52.534Z,66.35
2017-10-29T10:09:52.534Z,65.67
2017-10-29T10:10:52.527Z,65.96
2017-10-29T10:11:52.521Z,68.06
2017-10-29T10:12:52.525Z,64.72
2017-10-29T10:13:52.541Z,64.91
2017-10-29T10:14:52.509Z,63.86
2017-10-29T10:15:52.504Z,61.10
2017-10-29T10:16:52.499Z,59.95
2017-10-29T10:17:52.497Z,61.47
2017-10-29T10:18:52.495Z,61.95
2017-10-29T10:19:52.497Z,61.47
2017-10-29T10:20:52.484Z,62.15
2017-10-29T10:21:52.488Z,62.91
2017-10-29T10:22:52.479Z,60.52
2017-10-29T10:23:52.471Z,60.24
2017-10-29T10:24:52.472Z,60.61
2017-10-29T10:25:52.466Z,61.22
2017-10-29T10:26:52.469Z,59.78
2017-10-29T10:27:52.458Z,59.50
2017-10-29T10:28:52.446Z,59.98
2017-10-29T10:29:52.444Z,59.59
2017-10-29T10:30:52.438Z,59.31
2017-10-29T10:31:52.436Z,60.74
2017-10-29T10:32:52.426Z,59.12
2017-10-29T10:33:52.422Z,60.07
2017-10-29T10:34:52.425Z,58.45
2017-10-29T10:35:52.437Z,58.16
2017-10-29T10:36:52.412Z,58.93
2017-10-29T10:37:52.411Z,59.50
2017-10-29T10:38:52.405Z,59.66
2017-10-29T10:39:52.400Z,58.70
2017-10-29T10:40:52.396Z,59.76
2017-10-29T10:41:52.390Z,60.61
2017-10-29T10:42:52.384Z,62.34
2017-10-29T10:43:52.386Z,59.56
2017-10-29T10:44:52.375Z,58.77
2017-10-29T10:45:52.377Z,59.38
2017-10-29T10:46:52.370Z,59.76
2017-10-29T10:47:52.368Z,58.70
2017-10-29T10:48:59.515Z,58.99
2017-10-29T10:50:45.258Z,57.85
2017-10-29T10:51:45.240Z,58.42
2017-10-29T10:53:38.113Z,58.90
2017-10-29T10:54:38.094Z,57.97
2017-10-29T10:56:30.958Z,58.33
2017-10-29T10:57:30.949Z,58.99
2017-10-29T10:59:23.836Z,57.56
2017-10-29T11:00:23.807Z,56.89
2017-10-29T11:02:16.671Z,56.99
2017-10-29T11:03:16.660Z,57.59
2017-10-29T11:05:09.549Z,58.36
2017-10-29T11:06:09.519Z,59.12
2017-10-29T11:08:02.398Z,55.96
2017-10-29T11:09:02.381Z,56.63
2017-10-29T11:10:55.235Z,58.54
2017-10-29T11:11:55.231Z,59.41
2017-10-29T11:13:48.105Z,59.12
2017-10-29T11:14:48.148Z,58.26
2017-10-29T11:15:48.080Z,58.36
2017-10-29T11:16:48.075Z,58.64
2017-10-29T11:17:48.069Z,58.64
2017-10-29T11:18:48.065Z,58.64
2017-10-29T11:19:48.063Z,59.12
2017-10-29T11:20:48.059Z,59.31
2017-10-29T11:21:48.054Z,59.85
2017-10-29T11:22:48.052Z,60.52
2017-10-29T11:23:48.044Z,60.33
2017-10-29T11:24:48.047Z,61.47
2017-10-29T11:25:48.067Z,60.61
2017-10-29T11:26:48.032Z,60.61
2017-10-29T11:27:48.030Z,59.31
2017-10-29T11:28:48.030Z,57.87
2017-10-29T11:29:48.024Z,59.22
2017-10-29T11:30:48.010Z,61.60
2017-10-29T11:31:48.014Z,63.20
2017-10-29T11:32:48.011Z,64.25
2017-10-29T11:33:47.997Z,64.12
2017-10-29T11:34:47.997Z,65.93
2017-10-29T11:35:47.993Z,66.41
2017-10-29T11:36:47.987Z,66.78
2017-10-29T11:37:47.984Z,66.69
2017-10-29T11:38:47.993Z,65.83
2017-10-29T11:39:47.973Z,64.02
2017-10-29T11:40:47.976Z,61.25
2017-10-29T11:41:47.969Z,60.11
2017-10-29T11:42:47.964Z,59.25
2017-10-29T11:43:47.957Z,59.63
2017-10-29T11:44:47.965Z,58.99
2017-10-29T11:45:47.951Z,58.80
2017-10-29T11:46:47.946Z,58.29
2017-10-29T11:47:47.944Z,59.82
2017-10-29T11:48:47.935Z,59.73
2017-10-29T11:49:47.935Z,60.68
2017-10-29T11:50:47.931Z,61.54
2017-10-29T11:51:47.920Z,61.54
2017-10-29T11:52:47.920Z,61.73
2017-10-29T11:53:47.909Z,61.44
2017-10-29T11:54:48.593Z,61.44
2017-10-29T11:55:47.903Z,61.66
2017-10-29T11:56:47.898Z,60.61
2017-10-29T11:57:47.902Z,60.04
2017-10-29T11:58:47.889Z,59.47
2017-10-29T11:59:47.903Z,60.14
2017-10-29T12:00:47.884Z,60.27
2017-10-29T12:01:47.882Z,60.04
2017-10-29T12:02:47.876Z,60.04
2017-10-29T12:03:47.870Z,59.66
2017-10-29T12:04:47.871Z,58.54
2017-10-29T12:05:47.861Z,58.07
2017-10-29T12:06:47.857Z,58.93
2017-10-29T12:07:47.855Z,58.64
2017-10-29T12:08:47.846Z,58.73
2017-10-29T12:09:47.841Z,57.50
2017-10-29T12:10:47.839Z,57.68
2017-10-29T12:11:47.833Z,56.63
2017-10-29T12:12:47.828Z,55.77
2017-10-29T12:13:47.827Z,56.92
2017-10-29T12:14:47.820Z,56.92
2017-10-29T12:15:47.858Z,56.92
2017-10-29T12:16:47.812Z,57.31
2017-10-29T12:17:47.809Z,55.77
2017-10-29T12:18:47.802Z,54.91
2017-10-29T12:19:47.800Z,55.87
2017-10-29T12:20:47.799Z,55.96
2017-10-29T12:21:47.791Z,55.77
2017-10-29T12:22:47.785Z,56.18
2017-10-29T12:23:47.797Z,56.76
2017-10-29T12:24:54.911Z,56.98
2017-10-29T12:26:40.667Z,56.88
2017-10-29T12:27:40.635Z,55.23
2017-10-29T12:28:40.634Z,56.76
2017-10-29T12:29:40.644Z,57.11
2017-10-29T12:30:40.625Z,57.21
2017-10-29T12:31:40.621Z,57.50
2017-10-29T12:32:40.623Z,56.63
2017-10-29T12:33:40.615Z,56.35
2017-10-29T12:34:40.635Z,56.63
2017-10-29T12:35:40.607Z,56.35
2017-10-29T12:36:40.607Z,56.28
2017-10-29T12:37:40.596Z,56.95
2017-10-29T12:38:40.599Z,56.67
2017-10-29T12:39:40.592Z,55.42
2017-10-29T12:40:40.591Z,55.71
2017-10-29T12:41:40.584Z,55.90
2017-10-29T12:42:40.577Z,55.13
2017-10-29T12:43:40.576Z,54.47
2017-10-29T12:44:40.572Z,54.27
2017-10-29T12:45:40.569Z,55.23
2017-10-29T12:46:40.564Z,54.21
2017-10-29T12:47:40.556Z,54.02
2017-10-29T12:48:40.554Z,54.30
2017-10-29T12:49:40.553Z,54.02
2017-10-29T12:50:40.547Z,54.04
2017-10-29T12:51:40.548Z,53.47
2017-10-29T12:52:40.543Z,52.99
2017-10-29T12:53:40.543Z,52.48
2017-10-29T12:54:40.574Z,53.92
2017-10-29T12:55:40.523Z,53.37
2017-10-29T12:56:40.529Z,52.80
2017-10-29T12:57:40.523Z,52.13
2017-10-29T12:58:40.524Z,52.48
2017-10-29T12:59:40.518Z,54.02
2017-10-29T13:00:40.515Z,53.70
2017-10-29T13:01:40.522Z,54.27